createdAt,value
2018-11-27T00:00:05.486Z,12.57
2018-11-27T00:01:40.468Z,11.70
2018-11-27T00:03:15.400Z,11.07
2018-11-27T00:04:50.315Z,11.37
2018-11-27T00:06:25.191Z,10.97
2018-11-27T00:08:00.229Z,10.63
2018-11-27T00:09:35.217Z,11.30
2018-11-27T00:11:10.222Z,10.67
2018-11-27T00:12:45.107Z,10.10
2018-11-27T00:14:20.118Z,10.07
2018-11-27T00:15:55.031Z,9.87
2018-11-27T00:17:29.922Z,12.47
2018-11-27T00:19:04.864Z,10.23
2018-11-27T00:20:39.851Z,11.10
2018-11-27T00:22:14.733Z,10.70
2018-11-27T00:23:49.709Z,10.50
2018-11-27T00:25:24.811Z,12.37
2018-11-27T00:26:59.940Z,8.70
2018-11-27T00:28:34.970Z,11.80
2018-11-27T00:30:11.886Z,11.47
2018-11-27T00:31:46.819Z,11.63
2018-11-27T00:33:21.705Z,11.20
2018-11-27T00:34:56.740Z,10.37
2018-11-27T00:36:31.577Z,10.40
2018-11-27T00:38:06.899Z,14.23
2018-11-27T00:39:41.913Z,11.73
2018-11-27T00:41:16.830Z,11.27
2018-11-27T00:42:51.802Z,11.40
2018-11-27T00:44:26.764Z,11.27
2018-11-27T00:46:01.743Z,12.63
2018-11-27T00:47:36.629Z,13.73
2018-11-27T00:49:11.665Z,12.60
2018-11-27T00:50:46.553Z,10.63
2018-11-27T00:52:21.461Z,11.27
2018-11-27T00:53:56.367Z,11.83
2018-11-27T00:55:31.233Z,12.70
2018-11-27T00:57:06.104Z,13.00
2018-11-27T00:58:41.008Z,10.30
2018-11-27T01:00:20.982Z,13.03
2018-11-27T01:01:56.174Z,10.10
2018-11-27T01:03:31.040Z,12.17
2018-11-27T01:05:07.588Z,12.53
2018-11-27T01:06:42.456Z,10.60
2018-11-27T01:08:17.390Z,10.17
2018-11-27T01:09:52.300Z,12.67
2018-11-27T01:11:27.153Z,12.93
2018-11-27T01:13:02.138Z,10.07
2018-11-27T01:14:37.066Z,14.33
2018-11-27T01:16:12.060Z,12.23
2018-11-27T01:17:50.076Z,12.03
2018-11-27T01:19:25.145Z,10.67
2018-11-27T01:21:00.122Z,10.83
2018-11-27T01:22:34.969Z,11.33
2018-11-27T01:24:09.840Z,12.40
2018-11-27T01:25:44.905Z,10.47
2018-11-27T01:27:19.837Z,12.57
2018-11-27T01:28:54.836Z,10.37
2018-11-27T01:30:29.813Z,13.97
2018-11-27T01:32:04.749Z,10.47
2018-11-27T01:33:39.665Z,15.27
2018-11-27T01:35:15.598Z,13.40
2018-11-27T01:36:50.538Z,13.83
2018-11-27T01:38:25.401Z,12.57
2018-11-27T01:40:00.373Z,11.73
2018-11-27T01:41:35.450Z,10.40
2018-11-27T01:43:10.428Z,13.83
2018-11-27T01:44:45.328Z,11.20
2018-11-27T01:46:20.234Z,11.47
2018-11-27T01:47:56.257Z,9.43
2018-11-27T01:49:31.134Z,10.90
2018-11-27T01:51:06.145Z,12.30
2018-11-27T01:52:41.277Z,12.37
2018-11-27T01:54:16.267Z,11.77
2018-11-27T01:55:51.174Z,13.47
2018-11-27T01:57:26.069Z,11.50
2018-11-27T01:59:01.053Z,10.63
2018-11-27T02:00:36.004Z,11.17
2018-11-27T02:02:10.841Z,11.70
2018-11-27T02:03:45.721Z,13.90
2018-11-27T02:05:20.935Z,14.47
2018-11-27T02:06:55.801Z,12.10
2018-11-27T02:08:30.669Z,13.10
2018-11-27T02:10:09.816Z,12.87
2018-11-27T02:11:44.697Z,12.17
2018-11-27T02:13:19.584Z,11.80
2018-11-27T02:14:54.468Z,11.93
2018-11-27T02:16:29.413Z,11.70
2018-11-27T02:18:04.525Z,11.60
2018-11-27T02:19:39.376Z,14.57
2018-11-27T02:21:14.333Z,13.27
2018-11-27T02:22:49.208Z,13.23
2018-11-27T02:24:24.135Z,11.47
2018-11-27T02:25:59.056Z,13.23
2018-11-27T02:27:33.954Z,14.23
2018-11-27T02:29:08.818Z,12.83
2018-11-27T02:30:43.692Z,12.80
2018-11-27T02:32:18.719Z,14.13
2018-11-27T02:33:53.597Z,12.83
2018-11-27T02:35:28.553Z,13.03
2018-11-27T02:37:03.437Z,14.30
2018-11-27T02:38:38.430Z,10.90
2018-11-27T02:40:14.430Z,13.10
2018-11-27T02:41:49.318Z,12.93
2018-11-27T02:43:24.196Z,13.10
2018-11-27T02:44:59.097Z,13.67
2018-11-27T02:46:33.956Z,11.73
2018-11-27T02:48:08.812Z,13.03
2018-11-27T02:49:43.671Z,12.57
2018-11-27T02:51:18.669Z,11.50
2018-11-27T02:52:53.574Z,12.97
2018-11-27T02:54:28.446Z,12.13
2018-11-27T02:56:03.318Z,13.37
2018-11-27T02:57:38.261Z,13.93
2018-11-27T02:59:13.206Z,16.23
2018-11-27T03:00:48.130Z,12.97
2018-11-27T03:02:23.045Z,13.33
2018-11-27T03:03:57.950Z,13.23
2018-11-27T03:05:34.455Z,13.80
2018-11-27T03:07:09.341Z,12.60
2018-11-27T03:08:44.451Z,11.93
2018-11-27T03:10:19.446Z,14.70
2018-11-27T03:11:54.305Z,13.67
2018-11-27T03:13:29.464Z,14.57
2018-11-27T03:15:04.465Z,14.07
2018-11-27T03:16:39.393Z,12.80
2018-11-27T03:18:14.253Z,14.87
2018-11-27T03:19:49.177Z,12.60
2018-11-27T03:21:24.183Z,11.63
2018-11-27T03:22:59.134Z,15.97
2018-11-27T03:24:34.006Z,13.07
2018-11-27T03:26:08.925Z,13.80
2018-11-27T03:27:44.477Z,15.63
2018-11-27T03:29:19.345Z,13.60
2018-11-27T03:30:54.286Z,11.90
2018-11-27T03:32:29.190Z,12.23
2018-11-27T03:34:04.070Z,13.67
2018-11-27T03:35:38.964Z,14.67
2018-11-27T03:37:13.871Z,12.53
2018-11-27T03:38:48.755Z,14.50
2018-11-27T03:40:27.048Z,14.70
2018-11-27T03:42:01.933Z,11.93
2018-11-27T03:43:37.309Z,13.33
2018-11-27T03:45:13.354Z,14.80
2018-11-27T03:46:48.242Z,14.67
2018-11-27T03:48:23.196Z,15.17
2018-11-27T03:49:58.093Z,12.50
2018-11-27T03:51:33.087Z,14.57
2018-11-27T03:53:08.135Z,13.30
2018-11-27T03:54:42.972Z,13.43
2018-11-27T03:56:17.846Z,11.67
2018-11-27T03:57:52.880Z,12.37
2018-11-27T03:59:27.743Z,14.37
2018-11-27T04:01:02.695Z,15.47
2018-11-27T04:02:37.720Z,11.53
2018-11-27T04:04:12.588Z,12.40
2018-11-27T04:05:47.452Z,13.30
2018-11-27T04:07:22.358Z,14.27
2018-11-27T04:08:57.281Z,11.87
2018-11-27T04:10:32.145Z,14.50
2018-11-27T04:12:07.174Z,13.67
2018-11-27T04:13:42.069Z,14.17
2018-11-27T04:15:16.966Z,13.33
2018-11-27T04:16:51.932Z,11.47
2018-11-27T04:18:28.563Z,12.53
2018-11-27T04:20:03.457Z,12.23
2018-11-27T04:21:38.370Z,14.33
2018-11-27T04:23:13.263Z,11.37
2018-11-27T04:24:48.157Z,12.87
2018-11-27T04:26:23.038Z,21.57
2018-11-27T04:27:57.889Z,17.57
2018-11-27T04:29:32.760Z,14.97
2018-11-27T04:31:07.665Z,12.83
2018-11-27T04:32:43.213Z,12.03
2018-11-27T04:34:18.081Z,14.23
2018-11-27T04:35:52.974Z,15.57
2018-11-27T04:37:27.845Z,13.40
2018-11-27T04:39:02.738Z,10.43
2018-11-27T04:40:37.658Z,11.83
2018-11-27T04:42:12.535Z,14.53
2018-11-27T04:43:47.461Z,13.87
2018-11-27T04:45:25.035Z,13.67
2018-11-27T04:46:59.986Z,14.43
2018-11-27T04:48:34.837Z,15.17
2018-11-27T04:50:11.000Z,13.77
2018-11-27T04:51:45.880Z,14.27
2018-11-27T04:53:20.765Z,14.67
2018-11-27T04:54:55.643Z,13.93
2018-11-27T04:56:30.614Z,14.37
2018-11-27T04:58:05.737Z,14.33
2018-11-27T04:59:40.731Z,15.67
2018-11-27T05:01:15.674Z,14.67
2018-11-27T05:02:50.632Z,13.03
2018-11-27T05:04:25.602Z,13.97
2018-11-27T05:06:00.461Z,15.70
2018-11-27T05:07:35.493Z,12.63
2018-11-27T05:09:10.590Z,15.63
2018-11-27T05:10:45.605Z,13.00
2018-11-27T05:12:20.594Z,15.40
2018-11-27T05:13:55.500Z,13.93
2018-11-27T05:15:30.376Z,14.93
2018-11-27T05:17:05.494Z,14.53
2018-11-27T05:18:40.424Z,18.83
2018-11-27T05:20:15.455Z,15.40
2018-11-27T05:21:50.348Z,16.47
2018-11-27T05:23:25.398Z,11.77
2018-11-27T05:25:00.409Z,15.83
2018-11-27T05:26:35.250Z,17.77
2018-11-27T05:28:10.182Z,13.17
2018-11-27T05:29:45.137Z,13.30
2018-11-27T05:31:20.026Z,14.73
2018-11-27T05:32:54.978Z,15.07
2018-11-27T05:34:29.896Z,14.60
2018-11-27T05:36:04.895Z,13.50
2018-11-27T05:37:40.480Z,16.90
2018-11-27T05:39:15.354Z,13.30
2018-11-27T05:40:50.293Z,17.17
2018-11-27T05:42:25.170Z,16.07
2018-11-27T05:44:00.166Z,16.20
2018-11-27T05:45:35.060Z,18.73
2018-11-27T05:47:09.954Z,16.83
2018-11-27T05:48:44.888Z,15.00
2018-11-27T05:50:19.952Z,16.63
2018-11-27T05:51:54.841Z,13.50
2018-11-27T05:53:29.765Z,15.80
2018-11-27T05:55:05.181Z,13.77
2018-11-27T05:56:40.069Z,16.07
2018-11-27T05:58:15.012Z,17.03
2018-11-27T05:59:49.884Z,11.80
2018-11-27T06:01:24.827Z,16.27
2018-11-27T06:03:00.796Z,15.93
2018-11-27T06:04:35.672Z,13.83
2018-11-27T06:06:10.563Z,14.23
2018-11-27T06:07:45.568Z,14.07
2018-11-27T06:09:20.447Z,13.80
2018-11-27T06:10:55.461Z,14.97
2018-11-27T06:12:30.329Z,17.73
2018-11-27T06:14:05.451Z,14.97
2018-11-27T06:15:40.386Z,14.90
2018-11-27T06:17:15.288Z,16.93
2018-11-27T06:18:50.348Z,18.20
2018-11-27T06:20:25.305Z,15.07
2018-11-27T06:22:00.381Z,15.57
2018-11-27T06:23:35.283Z,16.17
2018-11-27T06:25:12.736Z,18.13
2018-11-27T06:26:47.629Z,18.37
2018-11-27T06:28:22.522Z,14.87
2018-11-27T06:29:57.426Z,18.03
2018-11-27T06:31:32.465Z,15.27
2018-11-27T06:33:07.367Z,15.27
2018-11-27T06:34:43.121Z,17.77
2018-11-27T06:36:17.179Z,16.73
2018-11-27T06:37:52.128Z,14.80
2018-11-27T06:39:27.172Z,15.33
2018-11-27T06:41:02.130Z,14.60
2018-11-27T06:42:37.022Z,19.87
2018-11-27T06:44:11.969Z,18.60
2018-11-27T06:45:46.895Z,16.60
2018-11-27T06:47:22.004Z,19.03
2018-11-27T06:48:57.133Z,16.93
2018-11-27T06:50:32.352Z,18.93
2018-11-27T06:52:07.256Z,15.63
2018-11-27T06:53:42.260Z,16.97
2018-11-27T06:55:19.249Z,16.57
2018-11-27T06:56:54.250Z,21.00
2018-11-27T06:58:29.184Z,17.33
2018-11-27T07:00:05.313Z,16.57
2018-11-27T07:01:40.243Z,16.23
2018-11-27T07:03:15.349Z,19.37
2018-11-27T07:04:50.512Z,20.23
2018-11-27T07:06:25.595Z,20.53
2018-11-27T07:08:00.508Z,17.97
2018-11-27T07:09:35.418Z,20.07
2018-11-27T07:11:10.314Z,19.47
2018-11-27T07:12:45.372Z,16.47
2018-11-27T07:14:20.339Z,17.27
2018-11-27T07:15:55.333Z,16.67
2018-11-27T07:17:30.261Z,19.13
2018-11-27T07:19:05.449Z,17.33
2018-11-27T07:20:40.458Z,17.07
2018-11-27T07:22:15.595Z,17.40
2018-11-27T07:23:50.604Z,20.07
2018-11-27T07:25:25.631Z,16.83
2018-11-27T07:27:00.672Z,20.90
2018-11-27T07:28:35.584Z,20.30
2018-11-27T07:30:13.081Z,19.30
2018-11-27T07:31:48.154Z,24.57
2018-11-27T07:33:23.074Z,19.97
2018-11-27T07:34:57.960Z,16.33
2018-11-27T07:36:32.960Z,20.13
2018-11-27T07:38:08.020Z,21.13
2018-11-27T07:39:42.955Z,17.67
2018-11-27T07:41:17.986Z,19.63
2018-11-27T07:42:58.216Z,18.37
2018-11-27T07:44:33.142Z,20.50
2018-11-27T07:46:08.081Z,19.17
2018-11-27T07:47:43.069Z,20.23
2018-11-27T07:49:17.974Z,19.80
2018-11-27T07:50:52.961Z,21.97
2018-11-27T07:52:27.866Z,28.83
2018-11-27T07:54:02.782Z,24.03
2018-11-27T07:55:37.792Z,19.03
2018-11-27T07:57:12.690Z,20.73
2018-11-27T07:58:47.668Z,18.63
2018-11-27T08:00:24.183Z,18.67
2018-11-27T08:01:59.310Z,20.57
2018-11-27T08:03:34.220Z,19.17
2018-11-27T08:05:11.600Z,18.20
2018-11-27T08:06:46.496Z,18.07
2018-11-27T08:08:21.640Z,18.80
2018-11-27T08:09:56.665Z,18.27
2018-11-27T08:11:31.544Z,19.70
2018-11-27T08:13:07.457Z,17.73
2018-11-27T08:14:42.361Z,17.00
2018-11-27T08:16:17.222Z,19.30
2018-11-27T08:17:52.205Z,17.57
2018-11-27T08:19:27.104Z,18.83
2018-11-27T08:21:02.073Z,18.03
2018-11-27T08:22:36.962Z,18.60
2018-11-27T08:24:11.833Z,21.00
2018-11-27T08:25:46.714Z,20.53
2018-11-27T08:27:21.670Z,19.70
2018-11-27T08:28:56.599Z,20.73
2018-11-27T08:30:31.487Z,21.63
2018-11-27T08:32:06.450Z,19.90
2018-11-27T08:33:41.363Z,17.00
2018-11-27T08:35:22.243Z,17.83
2018-11-27T08:36:57.379Z,19.57
2018-11-27T08:38:32.360Z,18.77
2018-11-27T08:40:09.634Z,21.43
2018-11-27T08:41:44.560Z,24.03
2018-11-27T08:43:19.456Z,17.13
2018-11-27T08:44:54.427Z,21.37
2018-11-27T08:46:29.513Z,20.90
2018-11-27T08:48:04.506Z,19.77
2018-11-27T08:49:39.548Z,15.37
2018-11-27T08:51:14.481Z,19.80
2018-11-27T08:52:52.598Z,17.77
2018-11-27T08:54:27.652Z,15.80
2018-11-27T08:56:02.516Z,17.60
2018-11-27T08:57:37.441Z,17.03
2018-11-27T08:59:12.789Z,16.30
2018-11-27T09:00:47.761Z,18.60
2018-11-27T09:02:22.876Z,18.30
2018-11-27T09:03:57.723Z,16.17
2018-11-27T09:05:32.592Z,20.00
2018-11-27T09:07:07.879Z,17.87
2018-11-27T09:08:42.758Z,16.50
2018-11-27T09:10:18.913Z,17.53
2018-11-27T09:11:53.825Z,16.07
2018-11-27T09:13:28.812Z,19.47
2018-11-27T09:15:03.840Z,17.90
2018-11-27T09:16:38.861Z,17.63
2018-11-27T09:18:16.660Z,16.83
2018-11-27T09:19:51.619Z,14.63
2018-11-27T09:21:26.510Z,16.07
2018-11-27T09:23:01.434Z,15.73
2018-11-27T09:24:36.373Z,15.87
2018-11-27T09:26:11.283Z,15.83
2018-11-27T09:27:46.235Z,14.83
2018-11-27T09:29:21.170Z,16.03
2018-11-27T09:30:56.149Z,14.90
2018-11-27T09:32:31.104Z,16.13
2018-11-27T09:34:06.257Z,14.67
2018-11-27T09:35:41.192Z,14.70
2018-11-27T09:37:16.118Z,13.73
2018-11-27T09:38:51.012Z,14.70
2018-11-27T09:40:25.934Z,15.27
2018-11-27T09:42:00.983Z,17.20
2018-11-27T09:43:35.874Z,19.47
2018-11-27T09:45:13.924Z,17.77
2018-11-27T09:46:48.890Z,15.63
2018-11-27T09:48:23.872Z,13.73
2018-11-27T09:49:58.826Z,17.50
2018-11-27T09:51:34.603Z,14.90
2018-11-27T09:53:12.128Z,18.70
2018-11-27T09:54:47.323Z,17.37
2018-11-27T09:56:22.232Z,14.83
2018-11-27T09:57:59.329Z,19.67
2018-11-27T09:59:32.079Z,17.20
2018-11-27T10:01:07.501Z,16.73
2018-11-27T10:02:42.428Z,15.97
2018-11-27T10:04:17.353Z,17.57
2018-11-27T10:05:52.429Z,16.73
2018-11-27T10:07:27.892Z,17.50
2018-11-27T10:09:02.579Z,18.53
2018-11-27T10:10:37.520Z,16.37
2018-11-27T10:12:12.420Z,16.70
2018-11-27T10:13:47.384Z,21.00
2018-11-27T10:15:29.624Z,16.93
2018-11-27T10:17:04.696Z,20.60
2018-11-27T10:18:39.653Z,17.57
2018-11-27T10:20:17.740Z,19.90
2018-11-27T10:21:52.667Z,16.60
2018-11-27T10:23:27.646Z,15.33
2018-11-27T10:25:02.590Z,15.27
2018-11-27T10:26:37.474Z,18.10
2018-11-27T10:28:12.412Z,22.83
2018-11-27T10:29:47.439Z,19.20
2018-11-27T10:31:22.487Z,20.50
2018-11-27T10:32:58.312Z,20.97
2018-11-27T10:34:33.378Z,21.87
2018-11-27T10:36:08.306Z,21.60
2018-11-27T10:37:43.192Z,20.03
2018-11-27T10:39:18.084Z,19.50
2018-11-27T10:40:53.156Z,21.57
2018-11-27T10:42:30.307Z,20.10
2018-11-27T10:44:03.122Z,20.03
2018-11-27T10:45:38.213Z,22.40
2018-11-27T10:47:13.191Z,20.70
2018-11-27T10:48:48.208Z,23.93
2018-11-27T10:50:23.384Z,21.93
2018-11-27T10:51:58.322Z,22.73
2018-11-27T10:53:33.240Z,25.67
2018-11-27T10:55:10.467Z,27.17
2018-11-27T10:56:45.445Z,24.63
2018-11-27T10:58:20.426Z,22.67
2018-11-27T10:59:55.440Z,22.33
2018-11-27T11:01:35.686Z,23.67
2018-11-27T11:03:30.029Z,24.03
2018-11-27T11:05:05.634Z,26.03
2018-11-27T11:06:40.545Z,25.27
2018-11-27T11:08:15.525Z,23.67
2018-11-27T11:09:50.489Z,25.07
2018-11-27T11:11:25.507Z,29.30
2018-11-27T11:13:01.143Z,31.50
2018-11-27T11:14:36.854Z,33.37
2018-11-27T11:16:11.828Z,34.07
2018-11-27T11:17:46.846Z,31.00
2018-11-27T11:19:21.765Z,35.17
2018-11-27T11:20:56.689Z,28.80
2018-11-27T11:22:31.644Z,31.13
2018-11-27T11:24:06.533Z,41.33
2018-11-27T11:25:41.437Z,32.23
2018-11-27T11:27:16.354Z,32.07
2018-11-27T11:28:51.251Z,34.73
2018-11-27T11:30:26.114Z,32.00
2018-11-27T11:32:01.017Z,39.17
2018-11-27T11:33:36.028Z,36.50
2018-11-27T11:35:11.196Z,34.57
2018-11-27T11:36:46.138Z,36.53
2018-11-27T11:38:21.193Z,36.90
2018-11-27T11:39:56.085Z,34.03
2018-11-27T11:41:31.371Z,32.93
2018-11-27T11:43:06.590Z,37.57
2018-11-27T11:44:41.531Z,35.03
2018-11-27T11:46:16.454Z,43.40
2018-11-27T11:47:51.356Z,33.17
2018-11-27T11:49:26.266Z,34.50
2018-11-27T11:51:01.196Z,36.27
2018-11-27T11:52:36.177Z,37.07
2018-11-27T11:54:11.185Z,36.40
2018-11-27T11:55:46.901Z,31.37
2018-11-27T11:57:21.943Z,30.10
2018-11-27T11:58:56.964Z,36.17
2018-11-27T12:00:36.197Z,34.73
2018-11-27T12:02:11.145Z,34.20
2018-11-27T12:03:46.046Z,39.43
2018-11-27T12:05:25.063Z,32.90
2018-11-27T12:06:56.086Z,32.30
2018-11-27T12:08:31.132Z,32.00
2018-11-27T12:10:08.466Z,36.10
2018-11-27T12:11:43.482Z,38.73
2018-11-27T12:13:18.392Z,31.40
2018-11-27T12:14:53.273Z,29.50
2018-11-27T12:16:28.691Z,31.97
2018-11-27T12:18:03.918Z,33.30
2018-11-27T12:19:39.052Z,30.83
2018-11-27T12:21:13.980Z,32.80
2018-11-27T12:22:50.085Z,33.47
2018-11-27T12:24:25.081Z,25.20
2018-11-27T12:25:59.975Z,28.97
2018-11-27T12:27:35.281Z,32.20
2018-11-27T12:29:10.213Z,31.37
2018-11-27T12:30:45.141Z,28.87
2018-11-27T12:32:20.088Z,25.60
2018-11-27T12:33:54.973Z,28.10
2018-11-27T12:35:29.964Z,25.10
2018-11-27T12:37:04.948Z,27.67
2018-11-27T12:38:39.833Z,26.00
2018-11-27T12:40:18.689Z,21.73
2018-11-27T12:41:53.564Z,26.20
2018-11-27T12:43:28.494Z,28.97
2018-11-27T12:45:03.492Z,28.30
2018-11-27T12:46:38.416Z,27.53
2018-11-27T12:48:13.311Z,29.40
2018-11-27T12:49:48.195Z,26.60
2018-11-27T12:51:23.113Z,25.53
2018-11-27T12:52:58.037Z,23.03
2018-11-27T12:54:32.917Z,26.07
2018-11-27T12:56:07.864Z,27.67
2018-11-27T12:57:42.887Z,28.70
2018-11-27T12:59:17.844Z,26.30
2018-11-27T13:00:52.717Z,28.30
2018-11-27T13:02:27.653Z,28.80
2018-11-27T13:04:02.529Z,29.10
2018-11-27T13:05:41.499Z,25.37
2018-11-27T13:07:16.552Z,24.97
2018-11-27T13:08:51.458Z,24.63
2018-11-27T13:10:26.372Z,27.03
2018-11-27T13:12:01.422Z,31.90
2018-11-27T13:13:36.417Z,23.77
2018-11-27T13:15:14.378Z,25.60
2018-11-27T13:16:49.290Z,25.60
2018-11-27T13:18:24.168Z,29.80
2018-11-27T13:19:59.049Z,22.97
2018-11-27T13:21:35.136Z,25.87
2018-11-27T13:23:10.058Z,21.87
2018-11-27T13:24:44.994Z,19.70
2018-11-27T13:26:19.982Z,21.83
2018-11-27T13:27:55.618Z,21.70
2018-11-27T13:29:30.540Z,18.70
2018-11-27T13:31:08.778Z,20.43
2018-11-27T13:32:44.457Z,24.03
2018-11-27T13:34:19.577Z,19.37
2018-11-27T13:35:54.467Z,21.47
2018-11-27T13:37:29.365Z,22.20
2018-11-27T13:39:15.596Z,20.40
2018-11-27T13:40:50.564Z,21.40
2018-11-27T13:42:25.510Z,21.23
2018-11-27T13:44:00.439Z,19.90
2018-11-27T13:45:35.590Z,19.33
2018-11-27T13:47:10.562Z,19.43
2018-11-27T13:48:45.432Z,18.03
2018-11-27T13:50:20.308Z,16.47
2018-11-27T13:51:55.199Z,18.87
2018-11-27T13:53:30.173Z,21.20
2018-11-27T13:55:07.152Z,18.13
2018-11-27T13:56:42.022Z,15.47
2018-11-27T13:58:17.027Z,16.93
2018-11-27T13:59:52.159Z,16.23
2018-11-27T14:01:27.108Z,18.03
2018-11-27T14:03:02.157Z,17.53
2018-11-27T14:04:37.045Z,19.70
2018-11-27T14:06:12.024Z,21.13
2018-11-27T14:07:47.065Z,20.43
2018-11-27T14:09:21.960Z,22.30
2018-11-27T14:10:56.870Z,24.27
2018-11-27T14:12:31.896Z,26.93
2018-11-27T14:14:07.577Z,19.83
2018-11-27T14:15:42.486Z,22.60
2018-11-27T14:17:17.375Z,23.93
2018-11-27T14:18:54.869Z,24.70
2018-11-27T14:20:29.760Z,26.87
2018-11-27T14:22:04.910Z,24.63
2018-11-27T14:23:39.907Z,29.63
2018-11-27T14:25:15.303Z,27.63
2018-11-27T14:26:50.212Z,28.60
2018-11-27T14:28:25.105Z,30.70
2018-11-27T14:30:00.022Z,26.33
2018-11-27T14:31:35.831Z,30.17
2018-11-27T14:33:10.754Z,26.63
2018-11-27T14:34:45.685Z,28.37
2018-11-27T14:36:20.710Z,26.07
2018-11-27T14:37:55.832Z,31.17
2018-11-27T14:39:30.771Z,28.23
2018-11-27T14:41:05.695Z,30.27
2018-11-27T14:42:40.586Z,21.40
2018-11-27T14:44:15.491Z,23.00
2018-11-27T14:45:50.397Z,20.63
2018-11-27T14:47:25.278Z,21.47
2018-11-27T14:49:00.165Z,23.37
2018-11-27T14:50:35.105Z,26.87
2018-11-27T14:52:10.084Z,24.50
2018-11-27T14:53:45.032Z,22.83
2018-11-27T14:55:23.373Z,20.63
2018-11-27T14:56:58.429Z,21.83
2018-11-27T14:58:33.301Z,21.53
2018-11-27T15:00:11.740Z,21.47
2018-11-27T15:01:47.510Z,16.73
2018-11-27T15:03:22.455Z,16.47
2018-11-27T15:04:57.594Z,16.53
2018-11-27T15:06:32.851Z,12.30
2018-11-27T15:08:10.220Z,16.43
2018-11-27T15:09:45.130Z,13.93
2018-11-27T15:11:20.060Z,13.43
2018-11-27T15:12:57.514Z,16.97
2018-11-27T15:14:32.451Z,14.73
2018-11-27T15:16:07.531Z,17.27
2018-11-27T15:17:42.435Z,18.17
2018-11-27T15:19:17.362Z,15.90
2018-11-27T15:20:52.236Z,15.53
2018-11-27T15:22:27.210Z,16.70
2018-11-27T15:24:02.148Z,17.77
2018-11-27T15:25:37.325Z,18.07
2018-11-27T15:27:13.116Z,18.67
2018-11-27T15:28:48.064Z,18.93
2018-11-27T15:30:30.355Z,17.53
2018-11-27T15:32:05.335Z,14.17
2018-11-27T15:33:40.232Z,16.70
2018-11-27T15:35:15.225Z,16.40
2018-11-27T15:36:50.183Z,20.30
2018-11-27T15:38:25.069Z,15.63
2018-11-27T15:40:00.191Z,17.50
2018-11-27T15:41:35.095Z,14.67
2018-11-27T15:43:09.994Z,18.17
2018-11-27T15:44:44.918Z,14.47
2018-11-27T15:46:19.809Z,16.10
2018-11-27T15:47:54.698Z,16.10
2018-11-27T15:49:29.712Z,17.50
2018-11-27T15:51:04.702Z,16.53
2018-11-27T15:52:39.716Z,18.40
2018-11-27T15:54:14.727Z,19.77
2018-11-27T15:55:49.593Z,17.83
2018-11-27T15:57:24.577Z,14.80
2018-11-27T15:58:59.605Z,16.43
2018-11-27T16:00:34.590Z,15.17
2018-11-27T16:02:09.511Z,16.17
2018-11-27T16:03:44.374Z,13.43
2018-11-27T16:05:19.333Z,13.90
2018-11-27T16:06:54.220Z,14.60
2018-11-27T16:08:29.153Z,21.03
2018-11-27T16:10:04.982Z,14.60
2018-11-27T16:11:39.983Z,14.93
2018-11-27T16:13:14.886Z,16.97
2018-11-27T16:14:49.770Z,14.53
2018-11-27T16:16:24.694Z,13.57
2018-11-27T16:17:59.644Z,15.40
2018-11-27T16:19:34.688Z,14.70
2018-11-27T16:21:09.579Z,13.47
2018-11-27T16:22:46.552Z,12.67
2018-11-27T16:24:21.489Z,13.97
2018-11-27T16:25:56.444Z,12.47
2018-11-27T16:27:31.369Z,16.03
2018-11-27T16:29:06.285Z,13.57
2018-11-27T16:30:41.369Z,11.23
2018-11-27T16:32:16.237Z,12.37
2018-11-27T16:33:51.133Z,14.93
2018-11-27T16:35:26.186Z,16.17
2018-11-27T16:37:01.065Z,16.27
2018-11-27T16:38:40.110Z,13.63
2018-11-27T16:40:15.285Z,14.10
2018-11-27T16:41:50.193Z,13.97
2018-11-27T16:43:25.297Z,16.87
2018-11-27T16:45:00.245Z,15.17
2018-11-27T16:46:35.353Z,15.57
2018-11-27T16:48:10.279Z,13.70
2018-11-27T16:49:45.284Z,16.33
2018-11-27T16:51:20.344Z,14.20
2018-11-27T16:52:55.247Z,13.77
2018-11-27T16:54:30.181Z,13.57
2018-11-27T16:56:05.631Z,15.03
2018-11-27T16:57:40.653Z,17.73
2018-11-27T16:59:15.932Z,14.40
2018-11-27T17:00:51.056Z,16.33
2018-11-27T17:02:26.264Z,16.17
2018-11-27T17:04:01.237Z,13.90
2018-11-27T17:05:40.324Z,13.27
2018-11-27T17:07:15.258Z,12.30
2018-11-27T17:08:50.251Z,12.57
2018-11-27T17:10:25.176Z,14.10
2018-11-27T17:12:00.136Z,12.93
2018-11-27T17:13:35.131Z,13.87
2018-11-27T17:15:13.317Z,12.73
2018-11-27T17:16:48.348Z,13.53
2018-11-27T17:18:23.285Z,10.80
2018-11-27T17:19:58.310Z,14.63
2018-11-27T17:21:33.380Z,12.80
2018-11-27T17:23:09.977Z,13.13
2018-11-27T17:24:44.925Z,11.90
2018-11-27T17:26:20.008Z,12.20
2018-11-27T17:27:55.813Z,15.57
2018-11-27T17:29:30.852Z,14.70
2018-11-27T17:31:09.476Z,12.47
2018-11-27T17:32:44.332Z,13.30
2018-11-27T17:34:19.303Z,11.87
2018-11-27T17:35:54.203Z,12.53
2018-11-27T17:37:29.079Z,14.83
2018-11-27T17:39:06.638Z,12.23
2018-11-27T17:40:41.596Z,12.23
2018-11-27T17:42:16.493Z,11.23
2018-11-27T17:43:51.488Z,13.23
2018-11-27T17:45:26.887Z,12.40
2018-11-27T17:47:01.883Z,13.80
2018-11-27T17:48:36.831Z,12.57
2018-11-27T17:50:14.830Z,13.33
2018-11-27T17:51:50.373Z,10.73
2018-11-27T17:53:25.772Z,12.27
2018-11-27T17:55:00.913Z,12.97
2018-11-27T17:56:35.951Z,14.90
2018-11-27T17:58:10.926Z,13.47
2018-11-27T17:59:45.997Z,13.23
2018-11-27T18:01:20.918Z,13.57
2018-11-27T18:02:59.336Z,14.23
2018-11-27T18:04:34.317Z,12.13
2018-11-27T18:06:09.355Z,13.23
2018-11-27T18:07:44.445Z,13.27
2018-11-27T18:09:19.402Z,14.23
2018-11-27T18:10:54.295Z,12.63
2018-11-27T18:12:33.629Z,15.90
2018-11-27T18:14:04.592Z,13.53
2018-11-27T18:15:39.637Z,13.77
2018-11-27T18:17:14.549Z,14.73
2018-11-27T18:18:49.473Z,12.77
2018-11-27T18:20:25.137Z,13.03
2018-11-27T18:22:00.225Z,13.27
2018-11-27T18:23:35.151Z,14.67
2018-11-27T18:25:14.088Z,13.10
2018-11-27T18:26:49.047Z,14.43
2018-11-27T18:28:23.937Z,14.43
2018-11-27T18:29:58.911Z,14.97
2018-11-27T18:31:33.759Z,12.50
2018-11-27T18:33:08.678Z,12.80
2018-11-27T18:34:43.558Z,14.57
2018-11-27T18:36:18.476Z,14.70
2018-11-27T18:37:53.612Z,14.67
2018-11-27T18:39:28.521Z,15.57
2018-11-27T18:41:03.511Z,16.80
2018-11-27T18:42:38.553Z,15.10
2018-11-27T18:44:13.453Z,16.93
2018-11-27T18:45:48.402Z,14.60
2018-11-27T18:47:23.404Z,12.47
2018-11-27T18:48:58.286Z,12.33
2018-11-27T18:50:34.306Z,14.17
2018-11-27T18:52:09.368Z,14.37
2018-11-27T18:53:44.221Z,14.93
2018-11-27T18:55:19.145Z,14.10
2018-11-27T18:56:54.125Z,15.07
2018-11-27T18:58:29.123Z,14.00
2018-11-27T19:00:06.151Z,13.70
2018-11-27T19:01:41.290Z,15.77
2018-11-27T19:03:16.230Z,12.87
2018-11-27T19:04:51.145Z,15.37
2018-11-27T19:06:26.052Z,15.10
2018-11-27T19:08:01.074Z,16.73
2018-11-27T19:09:35.959Z,15.73
2018-11-27T19:11:11.203Z,14.30
2018-11-27T19:12:46.665Z,14.70
2018-11-27T19:14:21.610Z,16.13
2018-11-27T19:15:56.515Z,15.20
2018-11-27T19:17:31.394Z,15.40
2018-11-27T19:19:06.360Z,16.77
2018-11-27T19:20:41.351Z,15.43
2018-11-27T19:22:16.221Z,15.63
2018-11-27T19:23:51.137Z,17.40
2018-11-27T19:25:26.079Z,16.30
2018-11-27T19:27:01.039Z,14.30
2018-11-27T19:28:35.950Z,15.80
2018-11-27T19:30:18.675Z,15.37
2018-11-27T19:31:53.587Z,13.57
2018-11-27T19:33:28.521Z,14.50
2018-11-27T19:35:03.434Z,18.63
2018-11-27T19:36:38.346Z,15.73
2018-11-27T19:38:14.654Z,12.67
2018-11-27T19:39:49.545Z,17.67
2018-11-27T19:41:24.529Z,15.00
2018-11-27T19:42:59.639Z,18.63
2018-11-27T19:44:34.545Z,18.13
2018-11-27T19:46:09.421Z,17.10
2018-11-27T19:47:45.150Z,17.57
2018-11-27T19:49:20.083Z,16.47
2018-11-27T19:50:55.048Z,14.87
2018-11-27T19:52:29.958Z,15.77
2018-11-27T19:54:05.123Z,17.13
2018-11-27T19:55:40.143Z,15.17
2018-11-27T19:57:15.106Z,17.20
2018-11-27T19:58:50.094Z,18.97
2018-11-27T20:00:27.266Z,17.57
2018-11-27T20:02:02.379Z,16.37
2018-11-27T20:03:37.336Z,15.47
2018-11-27T20:05:13.479Z,18.77
2018-11-27T20:06:48.501Z,18.07
2018-11-27T20:08:23.473Z,17.90
2018-11-27T20:09:58.359Z,19.43
2018-11-27T20:11:33.252Z,16.77
2018-11-27T20:13:08.310Z,17.93
2018-11-27T20:14:43.584Z,17.77
2018-11-27T20:16:18.553Z,16.10
2018-11-27T20:17:54.018Z,18.40
2018-11-27T20:19:29.005Z,19.87
2018-11-27T20:21:03.889Z,14.67
2018-11-27T20:22:38.824Z,16.67
2018-11-27T20:24:13.720Z,17.13
2018-11-27T20:25:48.894Z,22.43